Time;durP1;ratioP1;P1;durP2;ratioP2;P2;SDS_P1;SDS_P2;PMS_P1;PMS_P2;Temp;Humidity;BMP_temperature;BMP_pressure;BME280_temperature;BME280_humidity;BME280_pressure;Samples;Min_cycle;Max_cycle;Signal;HPM_P1;HPM_P2
2024/02/16 00:00:01;;;;;;;7.10;3.20;;;10.30;99.90;;;;;;5055246;28;20450;-70
2024/02/16 00:02:27;;;;;;;5.05;3.10;;;10.30;99.90;;;;;;5055606;28;20033;-70
2024/02/16 00:04:52;;;;;;;7.47;3.00;;;10.20;99.90;;;;;;5055415;28;20029;-70
2024/02/16 00:07:18;;;;;;;3.13;2.58;;;10.30;99.90;;;;;;5055676;28;20532;-70
2024/02/16 00:09:43;;;;;;;5.88;2.90;;;10.20;99.90;;;;;;5055604;28;20044;-69
2024/02/16 00:12:09;;;;;;;5.15;2.60;;;10.30;99.90;;;;;;5055479;28;20033;-69
2024/02/16 00:14:34;;;;;;;5.88;2.88;;;10.30;99.90;;;;;;5055565;28;20047;-70
2024/02/16 00:17:00;;;;;;;5.03;2.70;;;10.30;99.90;;;;;;5055302;28;20040;-70
2024/02/16 00:19:27;;;;;;;5.78;2.90;;;10.30;99.90;;;;;;5055324;28;20094;-69
2024/02/16 00:21:53;;;;;;;7.15;2.83;;;10.20;99.90;;;;;;5055303;28;20390;-69
2024/02/16 00:24:18;;;;;;;6.10;2.92;;;10.20;99.90;;;;;;5054950;28;20045;-70
2024/02/16 00:26:45;;;;;;;5.25;2.58;;;10.20;99.90;;;;;;5055126;28;20025;-69
2024/02/16 00:29:11;;;;;;;5.43;2.90;;;10.20;99.90;;;;;;5055673;28;20020;-70
2024/02/16 00:31:36;;;;;;;8.15;2.97;;;10.10;99.90;;;;;;5054884;28;20565;-69
2024/02/16 00:34:02;;;;;;;7.07;3.10;;;10.10;99.90;;;;;;5055094;28;20033;-70
2024/02/16 00:36:28;;;;;;;9.75;3.03;;;10.00;99.90;;;;;;5055143;28;20014;-70
2024/02/16 00:38:53;;;;;;;3.88;2.58;;;10.20;99.90;;;;;;5055040;28;20083;-70
2024/02/16 00:41:21;;;;;;;6.50;2.85;;;10.00;99.90;;;;;;5054943;28;20021;-69
2024/02/16 00:43:47;;;;;;;8.18;3.38;;;9.70;99.90;;;;;;5054883;28;20028;-69
2024/02/16 00:46:13;;;;;;;8.82;3.58;;;9.90;99.90;;;;;;5054896;28;20021;-69
2024/02/16 00:48:38;;;;;;;8.05;3.83;;;9.90;99.90;;;;;;5054872;28;20029;-70
2024/02/16 00:51:04;;;;;;;8.43;2.95;;;9.90;99.90;;;;;;5054878;28;20021;-70
2024/02/16 00:53:29;;;;;;;10.90;3.25;;;9.90;99.90;;;;;;5054664;28;20029;-70
2024/02/16 00:55:55;;;;;;;5.32;2.80;;;9.90;99.90;;;;;;5054489;28;20033;-69
2024/02/16 00:58:21;;;;;;;9.55;3.25;;;9.90;99.90;;;;;;5054560;28;20029;-69
2024/02/16 01:00:47;;;;;;;7.05;2.97;;;9.90;99.90;;;;;;5054596;28;20429;-69
2024/02/16 01:03:12;;;;;;;5.22;3.00;;;9.80;99.90;;;;;;5054534;28;20040;-69
2024/02/16 01:05:40;;;;;;;4.90;2.40;;;9.80;99.90;;;;;;5053988;28;20060;-69
2024/02/16 01:08:06;;;;;;;7.88;3.28;;;9.80;99.90;;;;;;5054329;28;20032;-70
2024/02/16 01:10:32;;;;;;;7.25;2.60;;;9.70;99.90;;;;;;5054191;28;20033;-69
2024/02/16 01:12:58;;;;;;;3.67;2.30;;;9.70;99.90;;;;;;5054321;28;20025;-70
2024/02/16 01:15:23;;;;;;;4.35;2.80;;;9.70;99.90;;;;;;5053835;28;20036;-69
2024/02/16 01:17:49;;;;;;;7.85;3.05;;;9.70;99.90;;;;;;5054077;28;20390;-70
2024/02/16 01:20:15;;;;;;;6.13;3.00;;;9.60;99.90;;;;;;5054150;28;20057;-69
2024/02/16 01:22:41;;;;;;;8.40;3.47;;;9.60;99.90;;;;;;5054075;28;20139;-70
2024/02/16 01:25:08;;;;;;;5.40;3.35;;;9.60;99.90;;;;;;5053455;28;20044;-69
2024/02/16 01:27:35;;;;;;;8.45;4.20;;;9.60;99.90;;;;;;5054159;28;20029;-69
2024/02/16 01:30:01;;;;;;;7.00;3.78;;;9.50;99.90;;;;;;5053958;28;20029;-70
2024/02/16 01:32:26;;;;;;;7.30;4.00;;;9.50;99.90;;;;;;5053972;28;20037;-70
2024/02/16 01:34:52;;;;;;;8.40;4.53;;;9.50;99.90;;;;;;5053706;28;20044;-69
2024/02/16 01:37:18;;;;;;;6.43;4.25;;;9.50;99.90;;;;;;5053899;28;20033;-69
2024/02/16 01:39:44;;;;;;;6.05;3.78;;;9.50;99.90;;;;;;5053843;28;20037;-69
2024/02/16 01:42:11;;;;;;;9.38;3.67;;;9.50;99.90;;;;;;5053802;28;20029;-69
2024/02/16 01:44:37;;;;;;;6.32;3.10;;;9.50;99.90;;;;;;5053637;28;20032;-70
2024/02/16 01:47:04;;;;;;;7.82;3.50;;;9.50;99.90;;;;;;5053605;28;20021;-69
2024/02/16 01:49:30;;;;;;;3.72;3.00;;;9.60;99.90;;;;;;5053609;28;20037;-69
2024/02/16 01:51:56;;;;;;;5.30;3.20;;;9.60;99.90;;;;;;5053600;28;20025;-69
2024/02/16 01:54:23;;;;;;;6.22;2.78;;;9.70;99.90;;;;;;5053195;28;20601;-69
2024/02/16 01:56:50;;;;;;;6.18;3.22;;;9.70;99.90;;;;;;5053452;28;20171;-69
2024/02/16 01:59:16;;;;;;;4.55;3.10;;;9.80;99.90;;;;;;5053561;28;20504;-69
2024/02/16 02:01:42;;;;;;;4.03;2.92;;;9.80;99.90;;;;;;5053456;28;20056;-69
2024/02/16 02:04:08;;;;;;;4.90;2.88;;;9.80;99.90;;;;;;5052900;28;20064;-69
2024/02/16 02:06:33;;;;;;;5.18;2.50;;;9.90;99.90;;;;;;5053330;28;20025;-69
2024/02/16 02:08:59;;;;;;;4.05;2.45;;;9.90;99.90;;;;;;5053353;28;20040;-69
2024/02/16 02:11:25;;;;;;;3.28;2.28;;;9.90;99.90;;;;;;5053255;28;20028;-69
2024/02/16 02:13:50;;;;;;;6.05;2.90;;;9.90;99.90;;;;;;5053292;28;20035;-69
2024/02/16 02:16:19;;;;;;;5.55;2.70;;;9.90;99.90;;;;;;5052773;28;20443;-69
2024/02/16 02:18:44;;;;;;;6.47;2.80;;;9.90;99.90;;;;;;5052916;28;20055;-69
2024/02/16 02:21:10;;;;;;;7.05;2.80;;;9.80;99.90;;;;;;5053231;28;20029;-69
2024/02/16 02:23:36;;;;;;;6.13;2.65;;;9.70;99.90;;;;;;5053047;28;20053;-68
2024/02/16 02:26:01;;;;;;;7.57;3.17;;;9.70;99.90;;;;;;5052854;28;20033;-69
2024/02/16 02:28:29;;;;;;;6.55;2.85;;;9.70;99.90;;;;;;5052626;28;20021;-68
2024/02/16 02:30:55;;;;;;;3.88;2.70;;;9.70;99.90;;;;;;5052663;28;20056;-69
2024/02/16 02:33:21;;;;;;;6.60;2.50;;;9.70;99.90;;;;;;5053138;28;20025;-69
2024/02/16 02:35:47;;;;;;;5.93;2.45;;;9.70;99.90;;;;;;5053038;28;20032;-69
2024/02/16 02:38:13;;;;;;;4.45;2.50;;;9.70;99.90;;;;;;5053069;28;20021;-69
2024/02/16 02:40:38;;;;;;;6.60;2.75;;;9.70;99.90;;;;;;5053050;28;20055;-69
2024/02/16 02:43:06;;;;;;;4.25;2.20;;;9.80;99.90;;;;;;5052726;28;20032;-69
2024/02/16 02:45:31;;;;;;;5.03;2.30;;;9.80;99.90;;;;;;5052409;28;20505;-68
2024/02/16 02:47:57;;;;;;;6.10;2.60;;;9.80;99.90;;;;;;5052945;28;20028;-70
2024/02/16 02:50:24;;;;;;;9.68;3.30;;;9.90;99.90;;;;;;5052797;28;20483;-70
2024/02/16 02:52:49;;;;;;;4.25;2.20;;;9.90;99.90;;;;;;5052984;28;20043;-69
2024/02/16 02:55:15;;;;;;;2.95;2.10;;;9.90;99.90;;;;;;5052746;28;20032;-69
2024/02/16 02:57:40;;;;;;;3.67;2.10;;;9.90;99.90;;;;;;5052860;28;20064;-69
2024/02/16 03:00:11;;;;;;;4.60;2.30;;;10.00;99.90;;;;;;5052819;28;20091;-69
2024/02/16 03:02:38;;;;;;;3.80;1.83;;;10.10;99.90;;;;;;5052951;28;20441;-69
2024/02/16 03:05:07;;;;;;;3.65;2.20;;;10.20;99.90;;;;;;5052500;28;20112;-69
2024/02/16 03:07:33;;;;;;;4.63;2.00;;;10.20;99.90;;;;;;5054832;28;20391;-69
2024/02/16 03:09:58;;;;;;;3.88;2.03;;;10.20;99.90;;;;;;5056207;28;20024;-69
2024/02/16 03:12:24;;;;;;;4.03;2.10;;;10.30;99.90;;;;;;5056379;28;20025;-69
2024/02/16 03:14:50;;;;;;;3.33;2.08;;;10.30;99.90;;;;;;5056509;28;20216;-69
2024/02/16 03:17:16;;;;;;;4.57;2.15;;;10.30;99.90;;;;;;5056572;28;20051;-69
2024/02/16 03:19:41;;;;;;;4.97;2.00;;;10.30;99.90;;;;;;5056473;28;20064;-70
2024/02/16 03:22:07;;;;;;;2.85;1.80;;;10.30;99.90;;;;;;5056146;28;20546;-69
2024/02/16 03:24:33;;;;;;;3.08;1.70;;;10.20;99.90;;;;;;5055913;28;20045;-69
2024/02/16 03:27:00;;;;;;;3.13;1.92;;;10.20;99.90;;;;;;5056120;28;20079;-69
2024/02/16 03:29:26;;;;;;;4.70;1.95;;;10.20;99.90;;;;;;5055847;28;20028;-69
2024/02/16 03:31:52;;;;;;;7.72;2.40;;;10.10;99.90;;;;;;5056180;28;20416;-69
2024/02/16 03:34:18;;;;;;;3.42;1.80;;;10.10;99.90;;;;;;5056191;28;20043;-69
2024/02/16 03:36:43;;;;;;;2.85;2.00;;;10.00;99.90;;;;;;5056164;28;20431;-70
2024/02/16 03:39:09;;;;;;;3.85;1.92;;;10.00;99.90;;;;;;5055690;28;20120;-69
2024/02/16 03:41:35;;;;;;;3.80;1.90;;;9.90;99.90;;;;;;5055872;28;20422;-69
2024/02/16 03:44:01;;;;;;;5.40;2.03;;;9.90;99.90;;;;;;5055832;28;20463;-69
2024/02/16 03:46:26;;;;;;;3.35;2.22;;;9.90;99.90;;;;;;5055786;28;20053;-69
2024/02/16 03:48:52;;;;;;;5.75;2.17;;;9.80;99.90;;;;;;5055629;28;20036;-69
2024/02/16 03:51:18;;;;;;;5.25;2.17;;;9.80;99.90;;;;;;5055853;28;20494;-69
2024/02/16 03:53:44;;;;;;;5.35;2.42;;;9.90;99.90;;;;;;5055781;28;20025;-69
2024/02/16 03:56:12;;;;;;;3.55;2.20;;;9.90;99.90;;;;;;5055760;28;20021;-69
2024/02/16 03:58:38;;;;;;;4.07;2.90;;;9.90;99.90;;;;;;5055696;28;20036;-69
2024/02/16 04:01:06;;;;;;;5.93;2.67;;;9.90;99.90;;;;;;5055644;28;20502;-69
2024/02/16 04:03:32;;;;;;;5.18;2.58;;;9.90;99.90;;;;;;5055514;28;20025;-69
2024/02/16 04:05:59;;;;;;;3.90;2.17;;;10.00;99.90;;;;;;5055269;28;20044;-69
2024/02/16 04:08:25;;;;;;;4.97;2.50;;;10.00;99.90;;;;;;5055489;28;20475;-69
2024/02/16 04:10:51;;;;;;;5.45;2.30;;;10.00;99.90;;;;;;5055153;28;20032;-69
2024/02/16 04:13:16;;;;;;;4.50;2.63;;;10.10;99.90;;;;;;5055600;28;20061;-69
2024/02/16 04:15:42;;;;;;;3.78;2.05;;;10.10;99.90;;;;;;5055310;28;20056;-69
2024/02/16 04:18:09;;;;;;;3.45;2.38;;;10.10;99.90;;;;;;5055255;28;20029;-70
2024/02/16 04:20:35;;;;;;;4.75;2.17;;;10.20;99.90;;;;;;5055354;28;20025;-69
2024/02/16 04:23:01;;;;;;;3.58;2.03;;;10.30;99.90;;;;;;5055162;28;20433;-69
2024/02/16 04:25:26;;;;;;;6.10;2.28;;;10.40;99.90;;;;;;5054764;28;20056;-69
2024/02/16 04:27:52;;;;;;;2.45;1.65;;;10.30;99.90;;;;;;5055072;28;20100;-69
2024/02/16 04:30:18;;;;;;;6.28;2.78;;;10.30;99.90;;;;;;5055256;28;20075;-69
2024/02/16 04:32:44;;;;;;;3.03;2.10;;;10.30;99.90;;;;;;5055158;28;20375;-69
2024/02/16 04:35:12;;;;;;;4.60;2.38;;;10.30;99.90;;;;;;5054979;28;20025;-69
2024/02/16 04:37:39;;;;;;;3.28;2.05;;;10.30;99.90;;;;;;5054912;28;20483;-70
2024/02/16 04:40:06;;;;;;;2.88;2.03;;;10.30;99.90;;;;;;5054994;28;20029;-70
2024/02/16 04:42:35;;;;;;;4.68;2.47;;;10.30;99.90;;;;;;5054788;28;20040;-70
2024/02/16 04:45:01;;;;;;;4.70;2.00;;;10.40;99.90;;;;;;5054829;28;20040;-69
2024/02/16 04:47:27;;;;;;;4.03;2.20;;;10.40;99.90;;;;;;5054977;28;20479;-69
2024/02/16 04:49:53;;;;;;;4.85;2.00;;;10.40;99.90;;;;;;5054635;28;20028;-69
2024/02/16 04:52:19;;;;;;;6.47;2.70;;;10.50;99.70;;;;;;5054902;28;20013;-69
2024/02/16 04:54:44;;;;;;;9.65;6.30;;;10.60;97.60;;;;;;5054323;28;20117;-69
2024/02/16 04:57:10;;;;;;;5.93;3.35;;;10.70;92.70;;;;;;5054837;28;20574;-69
2024/02/16 04:59:35;;;;;;;3.72;2.60;;;10.80;84.80;;;;;;5054554;28;20395;-69
2024/02/16 05:02:03;;;;;;;4.25;2.20;;;10.80;82.90;;;;;;5054577;28;20037;-69
2024/02/16 05:04:29;;;;;;;5.15;2.25;;;10.80;81.00;;;;;;5054253;28;20033;-69
2024/02/16 05:06:57;;;;;;;7.30;2.53;;;10.70;78.70;;;;;;5054478;28;20036;-69
2024/02/16 05:09:24;;;;;;;4.88;2.58;;;10.70;81.00;;;;;;5054456;28;20028;-69
2024/02/16 05:11:51;;;;;;;4.95;2.80;;;10.70;84.20;;;;;;5054212;28;20017;-69
2024/02/16 05:14:17;;;;;;;6.32;3.28;;;10.70;84.30;;;;;;5054353;28;20494;-69
2024/02/16 05:16:45;;;;;;;3.88;2.50;;;10.70;83.60;;;;;;5054256;28;20021;-69
2024/02/16 05:19:10;;;;;;;4.57;2.50;;;10.80;81.90;;;;;;5054359;28;20029;-69
2024/02/16 05:21:36;;;;;;;5.03;2.55;;;10.80;82.10;;;;;;5054165;28;20497;-69
2024/02/16 05:24:02;;;;;;;6.47;2.75;;;10.80;82.40;;;;;;5053637;28;20057;-69
2024/02/16 05:26:28;;;;;;;24.10;15.27;;;10.90;77.60;;;;;;5054098;28;20028;-69
2024/02/16 05:28:53;;;;;;;17.60;9.48;;;10.90;76.90;;;;;;5053421;28;20395;-69
2024/02/16 05:31:19;;;;;;;12.82;7.57;;;10.90;75.20;;;;;;5053802;28;20032;-69
2024/02/16 05:33:49;;;;;;;10.25;7.15;;;10.90;70.00;;;;;;5054036;28;20087;-69
2024/02/16 05:36:19;;;;;;;8.65;5.90;;;11.00;68.80;;;;;;5053945;28;20060;-69
2024/02/16 05:38:46;;;;;;;10.15;5.22;;;11.00;66.80;;;;;;5053908;28;20115;-69
2024/02/16 05:41:12;;;;;;;12.35;6.40;;;11.00;66.40;;;;;;5053910;28;20336;-69
2024/02/16 05:43:38;;;;;;;9.80;6.15;;;11.00;66.10;;;;;;5053640;28;20033;-69
2024/02/16 05:46:06;;;;;;;8.80;4.60;;;11.00;66.20;;;;;;5053342;28;20064;-69
2024/02/16 05:48:35;;;;;;;7.00;4.60;;;11.00;65.20;;;;;;5053685;28;20029;-69
2024/02/16 05:51:00;;;;;;;6.25;3.90;;;11.10;64.40;;;;;;5053571;28;20039;-69
2024/02/16 05:53:27;;;;;;;7.22;3.90;;;11.10;63.50;;;;;;5053627;28;20025;-70
2024/02/16 05:55:54;;;;;;;5.25;3.42;;;11.20;59.60;;;;;;5053202;28;20021;-69
2024/02/16 05:58:19;;;;;;;4.47;3.20;;;11.10;58.40;;;;;;5053626;28;20130;-69
2024/02/16 06:00:47;;;;;;;7.22;3.15;;;11.10;59.40;;;;;;5053443;28;20479;-69
2024/02/16 06:03:14;;;;;;;4.88;2.85;;;11.20;65.80;;;;;;5053733;28;20028;-69
2024/02/16 06:05:40;;;;;;;6.93;3.42;;;11.20;58.40;;;;;;5053261;28;20390;-69
2024/02/16 06:08:07;;;;;;;6.03;3.10;;;11.20;58.40;;;;;;5053430;28;20020;-69
2024/02/16 06:10:33;;;;;;;7.93;3.58;;;11.20;60.10;;;;;;5053387;28;20025;-70
2024/02/16 06:12:59;;;;;;;7.03;2.80;;;11.10;60.40;;;;;;5053109;28;20021;-69
2024/02/16 06:15:25;;;;;;;6.28;3.03;;;11.10;68.70;;;;;;5053098;28;20040;-70
2024/02/16 06:17:50;;;;;;;7.93;3.55;;;11.10;69.90;;;;;;5053414;28;20075;-70
2024/02/16 06:20:16;;;;;;;6.53;3.67;;;11.10;76.40;;;;;;5053458;28;20036;-70
2024/02/16 06:22:42;;;;;;;5.57;3.10;;;11.20;76.30;;;;;;5053011;28;20047;-69
2024/02/16 06:25:09;;;;;;;6.53;3.42;;;11.20;72.90;;;;;;5052913;28;20128;-70
2024/02/16 06:27:35;;;;;;;6.05;3.20;;;11.20;70.70;;;;;;5053271;28;20100;-70
2024/02/16 06:30:01;;;;;;;5.03;2.70;;;11.10;77.00;;;;;;5053259;28;20426;-69
2024/02/16 06:32:28;;;;;;;7.57;3.35;;;11.10;80.00;;;;;;5053370;28;20386;-69
2024/02/16 06:34:54;;;;;;;6.53;2.83;;;11.10;77.00;;;;;;5053187;28;20036;-69
2024/02/16 06:37:19;;;;;;;5.20;2.47;;;11.10;87.70;;;;;;5053386;28;20036;-69
2024/02/16 06:39:45;;;;;;;6.43;2.70;;;11.10;89.60;;;;;;5053378;28;20033;-69
2024/02/16 06:42:12;;;;;;;4.90;2.70;;;11.10;90.50;;;;;;5057090;28;20043;-69
2024/02/16 06:44:38;;;;;;;5.65;2.70;;;11.10;89.20;;;;;;5057080;28;20021;-69
2024/02/16 06:47:05;;;;;;;4.50;2.67;;;11.10;90.00;;;;;;5057279;28;20028;-70
2024/02/16 06:49:31;;;;;;;6.22;2.97;;;11.10;90.90;;;;;;5056770;28;20110;-70
2024/02/16 06:51:57;;;;;;;4.70;2.72;;;11.00;91.30;;;;;;5056876;28;20486;-69
2024/02/16 06:54:24;;;;;;;5.53;2.42;;;11.00;92.70;;;;;;5057082;28;20029;-70
2024/02/16 06:56:51;;;;;;;4.78;3.17;;;11.00;93.70;;;;;;5057351;28;20501;-70
2024/02/16 06:59:17;;;;;;;7.00;3.72;;;11.00;93.00;;;;;;5057006;28;20115;-70
2024/02/16 07:01:43;;;;;;;12.70;7.13;;;11.00;94.30;;;;;;5056935;28;20063;-70
2024/02/16 07:04:09;;;;;;;6.38;3.75;;;11.00;95.40;;;;;;5056694;28;20490;-69
2024/02/16 07:06:35;;;;;;;6.65;3.97;;;11.00;97.40;;;;;;5067423;28;20475;-70
2024/02/16 07:09:00;;;;;;;5.00;3.03;;;11.10;97.00;;;;;;5076098;28;20090;-70
2024/02/16 07:11:26;;;;;;;5.38;3.55;;;11.20;97.90;;;;;;5074773;28;20037;-69
2024/02/16 07:13:52;;;;;;;7.30;3.28;;;11.20;96.40;;;;;;5063068;28;20029;-70
2024/02/16 07:16:18;;;;;;;3.85;2.90;;;11.30;97.20;;;;;;5073547;28;20025;-70
2024/02/16 07:18:44;;;;;;;6.80;3.35;;;11.40;94.60;;;;;;5075990;28;20050;-70
2024/02/16 07:21:11;;;;;;;4.82;3.00;;;11.60;92.00;;;;;;5075960;28;20107;-70
2024/02/16 07:23:37;;;;;;;6.20;3.00;;;11.70;86.20;;;;;;5075476;28;20041;-70
2024/02/16 07:26:03;;;;;;;6.20;3.40;;;11.90;71.60;;;;;;5075837;28;20074;-70
2024/02/16 07:28:28;;;;;;;9.45;3.42;;;11.90;69.90;;;;;;5076034;28;20025;-69
2024/02/16 07:30:55;;;;;;;7.93;3.40;;;12.10;64.00;;;;;;5076270;28;20028;-70
2024/02/16 07:33:21;;;;;;;5.63;3.20;;;12.30;53.20;;;;;;5076205;28;20493;-69
2024/02/16 07:35:47;;;;;;;4.88;3.03;;;12.30;47.20;;;;;;5076164;28;20028;-69
2024/02/16 07:38:12;;;;;;;5.53;2.97;;;12.40;43.90;;;;;;5075888;28;20040;-69
2024/02/16 07:40:38;;;;;;;7.55;3.22;;;12.50;37.60;;;;;;5075257;28;20036;-70
2024/02/16 07:43:05;;;;;;;10.85;4.05;;;12.60;29.10;;;;;;5074522;28;20047;-70
2024/02/16 07:45:31;;;;;;;12.15;3.30;;;12.70;24.50;;;;;;5075104;28;20449;-70
2024/02/16 07:47:57;;;;;;;9.98;3.20;;;12.80;20.90;;;;;;5074989;28;20424;-70
2024/02/16 07:50:23;;;;;;;7.18;2.60;;;12.80;13.60;;;;;;5075881;28;20056;-71
2024/02/16 07:52:50;;;;;;;9.30;3.53;;;13.00;7.50;;;;;;5075058;28;20029;-70
2024/02/16 07:55:18;;;;;;;4.72;2.88;;;13.00;3.00;;;;;;5075993;28;20394;-71
2024/02/16 07:57:44;;;;;;;5.40;3.03;;;13.10;1.00;;;;;;5075771;28;20086;-71
2024/02/16 08:00:11;;;;;;;4.38;2.70;;;13.10;2.40;;;;;;5075394;28;20036;-71
2024/02/16 08:02:36;;;;;;;8.45;3.10;;;13.10;4.00;;;;;;5075170;28;20031;-71
2024/02/16 08:05:02;;;;;;;5.32;2.83;;;13.10;1.10;;;;;;5075726;28;20024;-71
2024/02/16 08:07:28;;;;;;;6.90;3.42;;;13.10;4.50;;;;;;5078368;28;20111;-71
2024/02/16 08:09:54;;;;;;;7.05;3.75;;;13.10;8.20;;;;;;5074926;28;20539;-70
2024/02/16 08:12:21;;;;;;;10.90;3.30;;;13.10;5.30;;;;;;5075682;28;20043;-72
2024/02/16 08:14:46;;;;;;;9.80;3.22;;;13.20;1.00;;;;;;5075422;28;20029;-70
2024/02/16 08:17:12;;;;;;;11.95;3.15;;;13.40;1.00;;;;;;5075667;28;20240;-70
2024/02/16 08:19:38;;;;;;;11.60;3.88;;;13.40;1.00;;;;;;5075259;28;20031;-70
2024/02/16 08:22:06;;;;;;;5.60;3.17;;;13.50;1.00;;;;;;5074945;28;20386;-70
2024/02/16 08:24:33;;;;;;;15.30;3.30;;;13.60;1.00;;;;;;5077116;28;20117;-71
2024/02/16 08:26:58;;;;;;;8.60;3.40;;;13.80;1.00;;;;;;5075062;28;20043;-71
2024/02/16 08:29:25;;;;;;;6.75;3.65;;;13.90;1.00;;;;;;5083744;28;20478;-70
2024/02/16 08:31:52;;;;;;;8.88;3.45;;;13.90;1.00;;;;;;5070575;28;20289;-69
2024/02/16 08:34:18;;;;;;;10.00;3.65;;;14.00;1.00;;;;;;5073870;28;20453;-70
2024/02/16 08:36:45;;;;;;;4.70;2.65;;;14.10;1.00;;;;;;5074052;28;20103;-70
2024/02/16 08:39:11;;;;;;;7.25;3.30;;;14.20;1.00;;;;;;5074418;28;20044;-70
2024/02/16 08:41:37;;;;;;;10.50;3.15;;;14.10;1.00;;;;;;5074876;28;20017;-70
2024/02/16 08:44:03;;;;;;;8.13;3.25;;;14.10;1.00;;;;;;5074803;28;20499;-70
2024/02/16 08:46:29;;;;;;;10.82;2.78;;;14.10;1.00;;;;;;5074969;28;20058;-69
2024/02/16 08:48:55;;;;;;;10.10;2.95;;;14.00;1.00;;;;;;5074829;28;20111;-69
2024/02/16 08:51:21;;;;;;;7.00;3.10;;;14.10;1.00;;;;;;5073286;28;20033;-69
2024/02/16 08:53:46;;;;;;;8.73;3.38;;;14.10;1.00;;;;;;5070396;28;20123;-69
2024/02/16 08:56:15;;;;;;;10.25;3.20;;;14.10;1.00;;;;;;5073849;28;20115;-70
2024/02/16 08:58:41;;;;;;;5.07;3.25;;;14.20;1.00;;;;;;5074057;28;20025;-70
2024/02/16 09:01:07;;;;;;;10.30;2.95;;;14.20;1.00;;;;;;5074508;28;20039;-70
2024/02/16 09:03:36;;;;;;;6.43;3.63;;;14.30;1.00;;;;;;5074048;28;20051;-70
2024/02/16 09:06:03;;;;;;;10.75;3.22;;;14.30;1.00;;;;;;5074464;28;20025;-71
2024/02/16 09:08:32;;;;;;;6.93;3.13;;;14.30;1.00;;;;;;5074068;28;20031;-70
2024/02/16 09:10:59;;;;;;;7.90;2.88;;;14.40;1.00;;;;;;5080094;28;20035;-69
2024/02/16 09:13:25;;;;;;;11.02;2.80;;;14.50;1.00;;;;;;5074398;28;20044;-70
2024/02/16 09:15:51;;;;;;;7.05;3.10;;;14.50;1.00;;;;;;5073890;28;20028;-70
2024/02/16 09:18:17;;;;;;;7.07;2.78;;;14.50;1.00;;;;;;5074712;28;20510;-70
2024/02/16 09:20:43;;;;;;;7.70;3.13;;;14.50;1.00;;;;;;5074144;28;20025;-69
2024/02/16 09:23:10;;;;;;;7.03;3.58;;;14.50;1.00;;;;;;5073258;28;20046;-70
2024/02/16 09:25:35;;;;;;;6.13;3.38;;;14.50;1.00;;;;;;5073043;28;20383;-71
2024/02/16 09:28:01;;;;;;;6.97;2.72;;;14.40;1.00;;;;;;5073728;28;20082;-71
2024/02/16 09:30:27;;;;;;;7.43;2.90;;;14.40;1.00;;;;;;5073606;28;20024;-70
2024/02/16 09:32:54;;;;;;;11.15;3.13;;;14.40;1.00;;;;;;5073710;28;20038;-71
2024/02/16 09:35:20;;;;;;;7.38;2.88;;;14.40;1.00;;;;;;5072308;28;20111;-71
2024/02/16 09:37:46;;;;;;;5.00;2.83;;;14.40;1.00;;;;;;5073841;28;20063;-72
2024/02/16 09:40:13;;;;;;;8.05;2.90;;;14.40;1.00;;;;;;5073410;28;20423;-70
2024/02/16 09:42:39;;;;;;;9.95;3.00;;;14.50;1.00;;;;;;5073758;28;20039;-71
2024/02/16 09:45:07;;;;;;;9.40;3.33;;;14.90;1.00;;;;;;5073395;28;20037;-71
2024/02/16 09:47:34;;;;;;;7.35;3.30;;;15.10;1.00;;;;;;5072857;28;20032;-71
2024/02/16 09:50:01;;;;;;;7.35;3.35;;;15.30;99.90;;;;;;5073471;28;20024;-71
2024/02/16 09:52:27;;;;;;;7.20;3.00;;;15.20;1.00;;;;;;5072742;28;20043;-70
2024/02/16 09:54:52;;;;;;;5.68;3.15;;;15.10;1.00;;;;;;5073166;28;20029;-71
2024/02/16 09:57:18;;;;;;;8.25;3.03;;;15.10;1.00;;;;;;5073747;28;20031;-71
2024/02/16 09:59:45;;;;;;;8.68;3.45;;;15.10;99.90;;;;;;5072867;28;20082;-71
2024/02/16 10:02:10;;;;;;;6.90;3.28;;;15.10;1.00;;;;;;5074556;28;20531;-70
2024/02/16 10:04:36;;;;;;;7.60;3.70;;;15.10;1.00;;;;;;5072959;28;20024;-72
2024/02/16 10:07:03;;;;;;;10.25;3.75;;;15.20;1.00;;;;;;5073161;28;20029;-70
2024/02/16 10:09:29;;;;;;;8.25;3.33;;;15.20;99.90;;;;;;5073030;28;20540;-71
2024/02/16 10:11:55;;;;;;;7.10;3.30;;;15.20;1.00;;;;;;5072913;28;20032;-70
2024/02/16 10:14:21;;;;;;;10.50;3.38;;;15.10;1.00;;;;;;5072978;28;20037;-71
2024/02/16 10:16:48;;;;;;;7.07;3.50;;;15.10;1.00;;;;;;5072875;28;20035;-71
2024/02/16 10:19:14;;;;;;;7.20;3.10;;;15.10;1.00;;;;;;5073067;28;20021;-71
2024/02/16 10:21:40;;;;;;;7.10;3.35;;;15.10;1.00;;;;;;5072698;28;20124;-71
2024/02/16 10:24:08;;;;;;;7.32;3.22;;;15.10;1.00;;;;;;5069236;28;20212;-71
2024/02/16 10:26:38;;;;;;;9.63;3.40;;;15.00;1.00;;;;;;5063940;28;20048;-71
2024/02/16 10:29:06;;;;;;;9.25;3.42;;;15.00;1.00;;;;;;5076849;28;20032;-71
2024/02/16 10:31:32;;;;;;;8.60;3.20;;;15.00;1.00;;;;;;5074319;28;20028;-71
2024/02/16 10:34:05;;;;;;;7.30;3.25;;;15.00;1.00;;;;;;5073097;28;20016;-71
2024/02/16 10:36:33;;;;;;;10.23;3.63;;;15.10;1.00;;;;;;5072638;28;20446;-71
2024/02/16 10:38:59;;;;;;;8.82;3.40;;;15.10;1.00;;;;;;5072094;28;20028;-70
2024/02/16 10:41:30;;;;;;;13.93;3.35;;;15.20;1.00;;;;;;5072894;28;20032;-71
2024/02/16 10:43:56;;;;;;;10.50;3.45;;;15.30;1.00;;;;;;5072687;28;20056;-70
2024/02/16 10:46:24;;;;;;;12.88;3.45;;;15.30;1.00;;;;;;5072129;28;20517;-70
2024/02/16 10:48:50;;;;;;;9.77;3.65;;;15.30;1.00;;;;;;5071140;28;20060;-70
2024/02/16 10:51:19;;;;;;;10.10;3.28;;;15.30;1.00;;;;;;5066951;28;20459;-70
2024/02/16 10:53:47;;;;;;;9.45;3.15;;;15.40;1.00;;;;;;5069430;28;20016;-70
2024/02/16 10:56:13;;;;;;;10.10;3.65;;;15.40;1.00;;;;;;5068183;28;20436;-71
2024/02/16 10:58:40;;;;;;;8.70;3.33;;;15.40;1.00;;;;;;5068924;28;20367;-71
2024/02/16 11:01:11;;;;;;;7.22;3.70;;;15.30;1.00;;;;;;5067256;28;20021;-70
2024/02/16 11:03:38;;;;;;;10.95;3.60;;;15.20;1.00;;;;;;5062725;28;20035;-71
2024/02/16 11:06:16;;;;;;;11.15;3.72;;;15.20;1.00;;;;;;5071425;28;20090;-71
2024/02/16 11:08:42;;;;;;;9.48;3.63;;;15.10;1.00;;;;;;5072154;28;20048;-70
2024/02/16 11:11:11;;;;;;;11.82;3.55;;;15.10;1.00;;;;;;5072057;28;20060;-71
2024/02/16 11:13:37;;;;;;;9.02;3.83;;;15.10;1.00;;;;;;5073775;28;20050;-71
2024/02/16 11:16:07;;;;;;;12.30;4.32;;;15.00;1.00;;;;;;5072633;28;20020;-71
2024/02/16 11:18:39;;;;;;;11.85;5.28;;;15.10;1.00;;;;;;5073135;28;20071;-71
2024/02/16 11:21:06;;;;;;;12.60;4.93;;;15.10;1.00;;;;;;5072395;28;20470;-71
2024/02/16 11:23:34;;;;;;;10.43;5.43;;;15.10;1.00;;;;;;5072456;28;20173;-71
2024/02/16 11:26:03;;;;;;;9.70;5.68;;;15.20;1.00;;;;;;5071075;28;20093;-71
2024/02/16 11:28:32;;;;;;;13.45;5.43;;;15.20;1.00;;;;;;5070378;28;20032;-71
2024/02/16 11:30:58;;;;;;;9.40;4.22;;;15.30;1.00;;;;;;5070770;28;20110;-71
2024/02/16 11:33:27;;;;;;;7.72;4.13;;;15.30;1.00;;;;;;5076753;28;20393;-71
2024/02/16 11:35:55;;;;;;;9.77;4.10;;;15.30;1.00;;;;;;5073495;28;20033;-71
2024/02/16 11:38:21;;;;;;;10.88;3.97;;;15.30;1.00;;;;;;5071669;28;20119;-71
2024/02/16 11:41:04;;;;;;;10.05;3.90;;;15.40;1.00;;;;;;5070992;28;20111;-71
2024/02/16 11:43:31;;;;;;;13.88;4.00;;;15.40;1.00;;;;;;5072308;28;20064;-71
2024/02/16 11:45:56;;;;;;;8.70;4.03;;;15.50;1.00;;;;;;5071503;28;20036;-71
2024/02/16 11:48:24;;;;;;;11.98;4.60;;;15.50;1.00;;;;;;5073850;28;20017;-71
2024/02/16 11:50:58;;;;;;;9.40;4.82;;;15.60;1.00;;;;;;5073257;28;20025;-71
2024/02/16 11:53:24;;;;;;;11.57;4.35;;;15.60;1.00;;;;;;5074865;28;20028;-71
2024/02/16 11:55:50;;;;;;;13.60;4.60;;;15.60;1.00;;;;;;5071003;28;20410;-71
2024/02/16 11:58:19;;;;;;;10.77;5.05;;;15.60;1.00;;;;;;5071007;28;20033;-70
2024/02/16 12:00:47;;;;;;;11.35;4.70;;;15.50;1.00;;;;;;5071874;28;20082;-71
2024/02/16 12:03:20;;;;;;;17.27;5.90;;;15.50;1.00;;;;;;5071533;28;20398;-71
2024/02/16 12:05:49;;;;;;;;;;;15.60;1.00;;;;;;5071118;28;20020;-71
2024/02/16 12:08:15;;;;;;;11.80;4.22;;;15.60;1.00;;;;;;5074731;28;19912;-71
2024/02/16 12:10:42;;;;;;;13.55;4.15;;;15.60;1.00;;;;;;5075126;28;20094;-71
2024/02/16 12:13:09;;;;;;;7.55;3.65;;;15.60;1.00;;;;;;5075245;28;20016;-72
2024/02/16 12:15:37;;;;;;;15.52;5.57;;;15.60;1.00;;;;;;5075390;28;20028;-71
2024/02/16 12:18:03;;;;;;;10.52;4.78;;;15.60;1.00;;;;;;5075358;28;20024;-72
2024/02/16 12:20:31;;;;;;;12.65;4.22;;;15.50;1.00;;;;;;5075076;28;20028;-72
2024/02/16 12:22:59;;;;;;;10.95;4.38;;;15.50;1.00;;;;;;5075691;28;20059;-72
2024/02/16 12:25:25;;;;;;;11.88;5.40;;;15.40;1.00;;;;;;5078535;28;20478;-71
2024/02/16 12:27:51;;;;;;;15.35;5.00;;;15.40;1.00;;;;;;5075003;28;20111;-71
2024/02/16 12:30:16;;;;;;;15.02;5.20;;;15.40;1.00;;;;;;5075522;28;20447;-72
2024/02/16 12:32:42;;;;;;;12.52;5.38;;;15.40;1.00;;;;;;5074682;28;20040;-71
2024/02/16 12:35:08;;;;;;;16.95;5.35;;;15.40;1.00;;;;;;5074906;28;20024;-71
2024/02/16 12:37:35;;;;;;;9.57;5.35;;;15.40;1.00;;;;;;5074395;28;20539;-71
2024/02/16 12:40:01;;;;;;;10.23;5.32;;;15.40;1.00;;;;;;5074509;28;20077;-72
2024/02/16 12:42:27;;;;;;;12.27;5.80;;;15.40;1.00;;;;;;5075020;28;20029;-71
2024/02/16 12:44:52;;;;;;;16.27;8.73;;;15.40;1.00;;;;;;5074736;28;20039;-72